Time,TemperatureF,DewpointF,PressureIn,WindDirection,WindDirectionDegrees,WindSpeedMPH,WindSpeedGustMPH,Humidity,HourlyPrecipIn,Conditions,Clouds,dailyrainin,SoftwareType,DateUTC
2013-02-16 00:01:00,71.0,19.0,-100.00,North,-999,-999.0,-999.0,14,-99.99,,,-99.99,,2013-02-16 00:01:00,
2013-02-16 00:11:00,71.0,19.0,-100.00,North,-999,-999.0,-999.0,14,-99.99,,,-99.99,,2013-02-16 00:11:00,
2013-02-16 00:21:00,69.0,18.0,-100.00,North,-999,-999.0,-999.0,14,-99.99,,,-99.99,,2013-02-16 00:21:00,
2013-02-16 00:31:00,69.0,18.0,-100.00,North,-999,-999.0,-999.0,14,-99.99,,,-99.99,,2013-02-16 00:31:00,
2013-02-16 00:42:00,69.0,18.0,-100.00,North,-999,-999.0,-999.0,14,-99.99,,,-99.99,,2013-02-16 00:42:00,
2013-02-16 00:52:00,69.0,18.0,-100.00,North,-999,-999.0,-999.0,14,-99.99,,,-99.99,,2013-02-16 00:52:00,
2013-02-16 01:02:00,67.0,16.0,-100.00,North,-999,-999.0,-999.0,14,-99.99,,,-99.99,,2013-02-16 01:02:00,
2013-02-16 01:11:00,67.0,16.0,-100.00,North,-999,-999.0,-999.0,14,-99.99,,,-99.99,,2013-02-16 01:11:00,
2013-02-16 01:21:00,67.0,16.0,-100.00,North,-999,-999.0,-999.0,14,-99.99,,,-99.99,,2013-02-16 01:21:00,
2013-02-16 01:31:00,67.0,16.0,-100.00,North,-999,-999.0,-999.0,14,-99.99,,,-99.99,,2013-02-16 01:31:00,
2013-02-16 02:01:00,60.0,16.0,-100.00,North,-999,-999.0,-999.0,18,-99.99,,,-99.99,,2013-02-16 02:01:00,
2013-02-16 02:11:00,60.0,16.0,-100.00,North,-999,-999.0,-999.0,18,-99.99,,,-99.99,,2013-02-16 02:11:00,
2013-02-16 02:21:00,57.0,17.0,-100.00,North,-999,-999.0,-999.0,21,-99.99,,,-99.99,,2013-02-16 02:21:00,
2013-02-16 02:31:00,57.0,17.0,-100.00,North,-999,-999.0,-999.0,21,-99.99,,,-99.99,,2013-02-16 02:31:00,
2013-02-16 02:42:00,57.0,17.0,-100.00,North,-999,-999.0,-999.0,21,-99.99,,,-99.99,,2013-02-16 02:42:00,
2013-02-16 02:52:00,57.0,17.0,-100.00,North,-999,-999.0,-999.0,21,-99.99,,,-99.99,,2013-02-16 02:52:00,
2013-02-16 03:01:00,47.0,20.0,-100.00,North,-999,-999.0,-999.0,34,-99.99,,,-99.99,,2013-02-16 03:01:00,
2013-02-16 03:11:00,47.0,20.0,-100.00,North,-999,-999.0,-999.0,34,-99.99,,,-99.99,,2013-02-16 03:11:00,
2013-02-16 03:21:00,47.0,20.0,-100.00,North,-999,-999.0,-999.0,34,-99.99,,,-99.99,,2013-02-16 03:21:00,
2013-02-16 04:01:00,42.0,22.0,-100.00,North,-999,-999.0,-999.0,44,-99.99,,,-99.99,,2013-02-16 04:01:00,
2013-02-16 04:31:00,38.0,20.0,-100.00,North,-999,-999.0,-999.0,47,-99.99,,,-99.99,,2013-02-16 04:31:00,
2013-02-16 04:42:00,38.0,20.0,-100.00,North,-999,-999.0,-999.0,47,-99.99,,,-99.99,,2013-02-16 04:42:00,
2013-02-16 04:52:00,38.0,20.0,-100.00,North,-999,-999.0,-999.0,47,-99.99,,,-99.99,,2013-02-16 04:52:00,
2013-02-16 05:01:00,38.0,20.0,-100.00,North,-999,-999.0,-999.0,47,-99.99,,,-99.99,,2013-02-16 05:01:00,
2013-02-16 05:32:00,35.0,20.0,-100.00,North,-999,-999.0,-999.0,55,-99.99,,,-99.99,,2013-02-16 05:32:00,
2013-02-16 05:42:00,35.0,20.0,-100.00,North,-999,-999.0,-999.0,55,-99.99,,,-99.99,,2013-02-16 05:42:00,
2013-02-16 05:52:00,35.0,20.0,-100.00,North,-999,-999.0,-999.0,55,-99.99,,,-99.99,,2013-02-16 05:52:00,
2013-02-16 06:01:00,35.0,21.0,-100.00,North,-999,-999.0,-999.0,57,-99.99,,,-99.99,,2013-02-16 06:01:00,
2013-02-16 06:11:00,35.0,21.0,-100.00,North,-999,-999.0,-999.0,57,-99.99,,,-99.99,,2013-02-16 06:11:00,
2013-02-16 06:21:00,35.0,21.0,-100.00,North,-999,-999.0,-999.0,57,-99.99,,,-99.99,,2013-02-16 06:21:00,
2013-02-16 06:32:00,32.0,22.0,-100.00,North,-999,-999.0,-999.0,66,-99.99,,,-99.99,,2013-02-16 06:32:00,
2013-02-16 06:42:00,32.0,22.0,-100.00,North,-999,-999.0,-999.0,66,-99.99,,,-99.99,,2013-02-16 06:42:00,
2013-02-16 06:52:00,32.0,22.0,-100.00,North,-999,-999.0,-999.0,66,-99.99,,,-99.99,,2013-02-16 06:52:00,
2013-02-16 07:02:00,33.0,22.0,-100.00,North,-999,-999.0,-999.0,64,-99.99,,,-99.99,,2013-02-16 07:02:00,
2013-02-16 07:11:00,33.0,22.0,-100.00,North,-999,-999.0,-999.0,64,-99.99,,,-99.99,,2013-02-16 07:11:00,
2013-02-16 07:21:00,33.0,22.0,-100.00,North,-999,-999.0,-999.0,64,-99.99,,,-99.99,,2013-02-16 07:21:00,
2013-02-16 07:31:00,33.0,22.0,-100.00,North,-999,-999.0,-999.0,64,-99.99,,,-99.99,,2013-02-16 07:31:00,
2013-02-16 08:01:00,33.0,24.0,-100.00,North,-999,-999.0,-999.0,68,-99.99,,,-99.99,,2013-02-16 08:01:00,
2013-02-16 08:11:00,33.0,24.0,-100.00,North,-999,-999.0,-999.0,68,-99.99,,,-99.99,,2013-02-16 08:11:00,
2013-02-16 08:21:00,33.0,24.0,-100.00,North,-999,-999.0,-999.0,68,-99.99,,,-99.99,,2013-02-16 08:21:00,
2013-02-16 09:01:00,32.0,23.0,-100.00,North,-999,-999.0,-999.0,68,-99.99,,,-99.99,,2013-02-16 09:01:00,
2013-02-16 09:11:00,32.0,23.0,-100.00,North,-999,-999.0,-999.0,68,-99.99,,,-99.99,,2013-02-16 09:11:00,
2013-02-16 09:21:00,32.0,23.0,-100.00,North,-999,-999.0,-999.0,68,-99.99,,,-99.99,,2013-02-16 09:21:00,
2013-02-16 09:31:00,32.0,23.0,-100.00,North,-999,-999.0,-999.0,68,-99.99,,,-99.99,,2013-02-16 09:31:00,
2013-02-16 10:01:00,30.0,22.0,-100.00,North,-999,-999.0,-999.0,72,-99.99,,,-99.99,,2013-02-16 10:01:00,
2013-02-16 10:11:00,30.0,22.0,-100.00,North,-999,-999.0,-999.0,72,-99.99,,,-99.99,,2013-02-16 10:11:00,
2013-02-16 10:21:00,30.0,22.0,-100.00,North,-999,-999.0,-999.0,72,-99.99,,,-99.99,,2013-02-16 10:21:00,
2013-02-16 10:31:00,29.0,21.0,-100.00,North,-999,-999.0,-999.0,72,-99.99,,,-99.99,,2013-02-16 10:31:00,
2013-02-16 10:42:00,29.0,21.0,-100.00,North,-999,-999.0,-999.0,72,-99.99,,,-99.99,,2013-02-16 10:42:00,
2013-02-16 10:52:00,28.0,21.0,-100.00,North,-999,-999.0,-999.0,75,-99.99,,,-99.99,,2013-02-16 10:52:00,
2013-02-16 11:01:00,28.0,21.0,-100.00,North,-999,-999.0,-999.0,75,-99.99,,,-99.99,,2013-02-16 11:01:00,
2013-02-16 11:11:00,28.0,21.0,-100.00,North,-999,-999.0,-999.0,75,-99.99,,,-99.99,,2013-02-16 11:11:00,
2013-02-16 11:22:00,28.0,21.0,-100.00,North,-999,-999.0,-999.0,75,-99.99,,,-99.99,,2013-02-16 11:22:00,
2013-02-16 11:31:00,28.0,21.0,-100.00,North,-999,-999.0,-999.0,75,-99.99,,,-99.99,,2013-02-16 11:31:00,
2013-02-16 11:42:00,28.0,21.0,-100.00,North,-999,-999.0,-999.0,75,-99.99,,,-99.99,,2013-02-16 11:42:00,
2013-02-16 11:52:00,28.0,21.0,-100.00,North,-999,-999.0,-999.0,75,-99.99,,,-99.99,,2013-02-16 11:52:00,
2013-02-16 12:01:00,28.0,22.0,-100.00,North,-999,-999.0,-999.0,79,-99.99,,,-99.99,,2013-02-16 12:01:00,
2013-02-16 12:22:00,29.0,21.0,-100.00,North,-999,-999.0,-999.0,73,-99.99,,,-99.99,,2013-02-16 12:22:00,
2013-02-16 12:32:00,29.0,21.0,-100.00,North,-999,-999.0,-999.0,73,-99.99,,,-99.99,,2013-02-16 12:32:00,
2013-02-16 12:42:00,29.0,21.0,-100.00,North,-999,-999.0,-999.0,73,-99.99,,,-99.99,,2013-02-16 12:42:00,
2013-02-16 12:52:00,29.0,21.0,-100.00,North,-999,-999.0,-999.0,73,-99.99,,,-99.99,,2013-02-16 12:52:00,
2013-02-16 13:01:00,30.0,22.0,-100.00,North,-999,-999.0,-999.0,72,-99.99,,,-99.99,,2013-02-16 13:01:00,
2013-02-16 13:11:00,30.0,22.0,-100.00,North,-999,-999.0,-999.0,72,-99.99,,,-99.99,,2013-02-16 13:11:00,
2013-02-16 13:21:00,30.0,22.0,-100.00,North,-999,-999.0,-999.0,72,-99.99,,,-99.99,,2013-02-16 13:21:00,
2013-02-16 13:31:00,30.0,22.0,-100.00,North,-999,-999.0,-999.0,72,-99.99,,,-99.99,,2013-02-16 13:31:00,
2013-02-16 14:01:00,32.0,20.0,-100.00,North,-999,-999.0,-999.0,60,-99.99,,,-99.99,,2013-02-16 14:01:00,
2013-02-16 14:32:00,31.0,21.0,-100.00,North,-999,-999.0,-999.0,66,-99.99,,,-99.99,,2013-02-16 14:32:00,
2013-02-16 14:42:00,31.0,21.0,-100.00,North,-999,-999.0,-999.0,66,-99.99,,,-99.99,,2013-02-16 14:42:00,
2013-02-16 14:52:00,31.0,21.0,-100.00,North,-999,-999.0,-999.0,66,-99.99,,,-99.99,,2013-02-16 14:52:00,
2013-02-16 15:01:00,30.0,19.0,-100.00,North,-999,-999.0,-999.0,64,-99.99,,,-99.99,,2013-02-16 15:01:00,
2013-02-16 15:11:00,30.0,19.0,-100.00,North,-999,-999.0,-999.0,64,-99.99,,,-99.99,,2013-02-16 15:11:00,
2013-02-16 15:21:00,30.0,19.0,-100.00,North,-999,-999.0,-999.0,64,-99.99,,,-99.99,,2013-02-16 15:21:00,
2013-02-16 15:31:00,29.0,20.0,-100.00,North,-999,-999.0,-999.0,68,-99.99,,,-99.99,,2013-02-16 15:31:00,
2013-02-16 15:42:00,29.0,20.0,-100.00,North,-999,-999.0,-999.0,68,-99.99,,,-99.99,,2013-02-16 15:42:00,
2013-02-16 15:52:00,29.0,20.0,-100.00,North,-999,-999.0,-999.0,68,-99.99,,,-99.99,,2013-02-16 15:52:00,
2013-02-16 16:01:00,29.0,20.0,-100.00,North,-999,-999.0,-999.0,68,-99.99,,,-99.99,,2013-02-16 16:01:00,
2013-02-16 16:32:00,39.0,21.0,-100.00,North,-999,-999.0,-999.0,48,-99.99,,,-99.99,,2013-02-16 16:32:00,
2013-02-16 16:42:00,39.0,21.0,-100.00,North,-999,-999.0,-999.0,48,-99.99,,,-99.99,,2013-02-16 16:42:00,
2013-02-16 16:52:00,39.0,21.0,-100.00,North,-999,-999.0,-999.0,48,-99.99,,,-99.99,,2013-02-16 16:52:00,
2013-02-16 17:01:00,39.0,21.0,-100.00,North,-999,-999.0,-999.0,48,-99.99,,,-99.99,,2013-02-16 17:01:00,
2013-02-16 23:02:00,70.0,20.0,-100.00,North,-999,-999.0,-999.0,15,-99.99,,,-99.99,,2013-02-16 23:02:00,
2013-02-16 23:11:00,70.0,20.0,-100.00,North,-999,-999.0,-999.0,15,-99.99,,,-99.99,,2013-02-16 23:11:00,
2013-02-16 23:21:00,70.0,20.0,-100.00,North,-999,-999.0,-999.0,15,-99.99,,,-99.99,,2013-02-16 23:21:00,
2013-02-16 23:31:00,69.0,22.0,-100.00,North,-999,-999.0,-999.0,17,-99.99,,,-99.99,,2013-02-16 23:31:00,
2013-02-16 23:42:00,69.0,22.0,-100.00,North,-999,-999.0,-999.0,17,-99.99,,,-99.99,,2013-02-16 23:42:00,
2013-02-16 23:52:00,69.0,22.0,-100.00,North,-999,-999.0,-999.0,17,-99.99,,,-99.99,,2013-02-16 23:52:00,